BLP849 UAII-UAAA
Flight info
| Callsign | BLP849 |
|---|---|
| Flight time | N/A |
| Altitude | FL390 |
| Route | TURIK N143 TAR Z817 TIPSA |
| Aircraft | C750/M-SBDE3FGHRWXY/S |
Departure
| Time | 2026-04-11 08:30 |
|---|---|
| Airport | Shymkent International Airport (UAII) |
Arrival
| Time | N/A |
|---|---|
| Airport | Almaty International Airport (UAAA) |
| Time | Latitude | Longitude | Altitude | Speed | Heading |
|---|---|---|---|---|---|
| 2026-04-11 08:22 | 42.36467 | 69.49481 | 1352 ft | 0 kts | 23° |
| 2026-04-11 08:28 | 42.36493 | 69.49486 | 1352 ft | 8 kts | 351° |
| 2026-04-11 08:28 | 42.36514 | 69.49407 | 1352 ft | 11 kts | 228° |
| 2026-04-11 08:29 | 42.36423 | 69.49358 | 1352 ft | 18 kts | 199° |
| 2026-04-11 08:29 | 42.36281 | 69.49303 | 1352 ft | 25 kts | 194° |
| 2026-04-11 08:29 | 42.36153 | 69.49213 | 1353 ft | 19 kts | 258° |
| 2026-04-11 08:29 | 42.36208 | 69.48932 | 1354 ft | 65 kts | 285° |
| 2026-04-11 08:30 | 42.36434 | 69.47884 | 1421 ft | 146 kts | 289° |
| 2026-04-11 08:30 | 42.36748 | 69.46516 | 2034 ft | 162 kts | 289° |
| 2026-04-11 08:30 | 42.37120 | 69.44951 | 2512 ft | 191 kts | 290° |
| 2026-04-11 08:30 | 42.37800 | 69.43275 | 2939 ft | 223 kts | 319° |
| 2026-04-11 08:31 | 42.39312 | 69.42497 | 3373 ft | 252 kts | 359° |
| 2026-04-11 08:31 | 42.40948 | 69.43315 | 4263 ft | 257 kts | 41° |
| 2026-04-11 08:31 | 42.41831 | 69.45366 | 5404 ft | 259 kts | 76° |
| 2026-04-11 08:31 | 42.42082 | 69.47771 | 6437 ft | 260 kts | 77° |
| 2026-04-11 08:32 | 42.42565 | 69.50131 | 7483 ft | 263 kts | 72° |
| 2026-04-11 08:32 | 42.43062 | 69.52548 | 8541 ft | 270 kts | 76° |
| 2026-04-11 08:32 | 42.43459 | 69.55056 | 9632 ft | 276 kts | 78° |
| 2026-04-11 08:32 | 42.43849 | 69.57650 | 10357 ft | 291 kts | 77° |
| 2026-04-11 08:33 | 42.44308 | 69.60444 | 10625 ft | 318 kts | 77° |
| 2026-04-11 08:33 | 42.44822 | 69.63486 | 10787 ft | 345 kts | 77° |
| 2026-04-11 08:33 | 42.45342 | 69.66673 | 11553 ft | 348 kts | 77° |
| 2026-04-11 08:33 | 42.45856 | 69.69865 | 12422 ft | 349 kts | 77° |
| 2026-04-11 08:34 | 42.46379 | 69.73077 | 13197 ft | 353 kts | 77° |
| 2026-04-11 08:34 | 42.46912 | 69.76335 | 13942 ft | 358 kts | 77° |
| 2026-04-11 08:34 | 42.47447 | 69.79627 | 14644 ft | 360 kts | 77° |
| 2026-04-11 08:34 | 42.47985 | 69.82954 | 15302 ft | 365 kts | 77° |
| 2026-04-11 08:35 | 42.48530 | 69.86335 | 15909 ft | 370 kts | 77° |
| 2026-04-11 08:35 | 42.49080 | 69.89743 | 16654 ft | 373 kts | 76° |
| 2026-04-11 08:35 | 42.49635 | 69.93186 | 17329 ft | 378 kts | 76° |
| 2026-04-11 08:35 | 42.50198 | 69.96693 | 18014 ft | 383 kts | 77° |
| 2026-04-11 08:36 | 42.50765 | 70.00229 | 18718 ft | 388 kts | 76° |
| 2026-04-11 08:36 | 42.51338 | 70.03809 | 19387 ft | 392 kts | 77° |
| 2026-04-11 08:36 | 42.51948 | 70.07416 | 20049 ft | 395 kts | 74° |
| 2026-04-11 08:36 | 42.52884 | 70.10924 | 20703 ft | 398 kts | 68° |
| 2026-04-11 08:37 | 42.53893 | 70.14426 | 21384 ft | 402 kts | 68° |
| 2026-04-11 08:37 | 42.54889 | 70.17985 | 22061 ft | 406 kts | 68° |
| 2026-04-11 08:37 | 42.55871 | 70.21590 | 22735 ft | 410 kts | 69° |
| 2026-04-11 08:37 | 42.56872 | 70.25226 | 23378 ft | 414 kts | 69° |
| 2026-04-11 08:38 | 42.57896 | 70.28895 | 23969 ft | 418 kts | 68° |
| 2026-04-11 08:38 | 42.58923 | 70.32589 | 24527 ft | 421 kts | 68° |
| 2026-04-11 08:38 | 42.59949 | 70.36322 | 25083 ft | 424 kts | 68° |
| 2026-04-11 08:38 | 42.60980 | 70.40077 | 25652 ft | 427 kts | 68° |
| 2026-04-11 08:39 | 42.62023 | 70.43863 | 26177 ft | 431 kts | 67° |
| 2026-04-11 08:39 | 42.63070 | 70.47677 | 26744 ft | 434 kts | 67° |
| 2026-04-11 08:39 | 42.64117 | 70.51522 | 27319 ft | 437 kts | 68° |
| 2026-04-11 08:39 | 42.65175 | 70.55404 | 27834 ft | 441 kts | 67° |
| 2026-04-11 08:40 | 42.66241 | 70.59312 | 28432 ft | 444 kts | 67° |
| 2026-04-11 08:40 | 42.67377 | 70.63208 | 28917 ft | 447 kts | 65° |
| 2026-04-11 08:40 | 42.68593 | 70.67106 | 29444 ft | 450 kts | 65° |
| 2026-04-11 08:40 | 42.69766 | 70.71054 | 30006 ft | 454 kts | 65° |
| 2026-04-11 08:41 | 42.70967 | 70.75047 | 30437 ft | 458 kts | 65° |
| 2026-04-11 08:41 | 42.72204 | 70.79037 | 30889 ft | 461 kts | 64° |
| 2026-04-11 08:41 | 42.73448 | 70.83065 | 31323 ft | 464 kts | 65° |
| 2026-04-11 08:41 | 42.74667 | 70.87103 | 31944 ft | 462 kts | 65° |
| 2026-04-11 08:42 | 42.75885 | 70.91146 | 32570 ft | 462 kts | 65° |
| 2026-04-11 08:42 | 42.77110 | 70.95166 | 33153 ft | 462 kts | 65° |
| 2026-04-11 08:42 | 42.78337 | 70.99191 | 33750 ft | 462 kts | 65° |
| 2026-04-11 08:43 | 42.80772 | 71.07264 | 34842 ft | 462 kts | 65° |
| 2026-04-11 08:43 | 42.81991 | 71.11305 | 35330 ft | 463 kts | 65° |
| 2026-04-11 08:43 | 42.83211 | 71.15347 | 35836 ft | 463 kts | 65° |
| 2026-04-11 08:43 | 42.84433 | 71.19409 | 36331 ft | 464 kts | 65° |
| 2026-04-11 08:44 | 42.85652 | 71.23476 | 36853 ft | 465 kts | 66° |
| 2026-04-11 08:44 | 42.86855 | 71.27565 | 37426 ft | 465 kts | 68° |
| 2026-04-11 08:44 | 42.87736 | 71.31802 | 37955 ft | 467 kts | 75° |
| 2026-04-11 08:44 | 42.88410 | 71.36129 | 38507 ft | 467 kts | 77° |
| 2026-04-11 08:45 | 42.89063 | 71.40457 | 39001 ft | 467 kts | 76° |
| 2026-04-11 08:45 | 42.89795 | 71.44779 | 39183 ft | 473 kts | 75° |
| 2026-04-11 08:45 | 42.90570 | 71.49186 | 39181 ft | 485 kts | 75° |
| 2026-04-11 08:45 | 42.91315 | 71.53712 | 39189 ft | 496 kts | 76° |
| 2026-04-11 08:46 | 42.92048 | 71.58357 | 39194 ft | 507 kts | 76° |
| 2026-04-11 08:46 | 42.93624 | 71.67895 | 39198 ft | 526 kts | 76° |
| 2026-04-11 08:47 | 42.95212 | 71.77690 | 39197 ft | 530 kts | 76° |
| 2026-04-11 08:47 | 42.96937 | 71.87422 | 39193 ft | 528 kts | 73° |
| 2026-04-11 08:48 | 42.98909 | 71.97075 | 39188 ft | 530 kts | 73° |
| 2026-04-11 08:48 | 43.00818 | 72.06791 | 39187 ft | 530 kts | 73° |
| 2026-04-11 08:49 | 43.02760 | 72.16490 | 39190 ft | 530 kts | 73° |
| 2026-04-11 08:49 | 43.04666 | 72.26201 | 39192 ft | 530 kts | 73° |
| 2026-04-11 08:50 | 43.06582 | 72.35920 | 39192 ft | 531 kts | 73° |
| 2026-04-11 08:50 | 43.08482 | 72.45659 | 39179 ft | 531 kts | 74° |
| 2026-04-11 08:51 | 43.10376 | 72.55388 | 39174 ft | 531 kts | 74° |
| 2026-04-11 08:51 | 43.12262 | 72.65139 | 39182 ft | 531 kts | 74° |
| 2026-04-11 08:52 | 43.15076 | 72.79769 | 39180 ft | 531 kts | 74° |
| 2026-04-11 08:52 | 43.16944 | 72.89544 | 39179 ft | 531 kts | 74° |
| 2026-04-11 08:53 | 43.18804 | 72.99323 | 39177 ft | 531 kts | 74° |
| 2026-04-11 08:53 | 43.20653 | 73.09103 | 39172 ft | 531 kts | 74° |
| 2026-04-11 08:54 | 43.22483 | 73.18891 | 39173 ft | 531 kts | 75° |
| 2026-04-11 08:54 | 43.24309 | 73.28692 | 39171 ft | 531 kts | 74° |
| 2026-04-11 08:55 | 43.26124 | 73.38491 | 39165 ft | 531 kts | 75° |
| 2026-04-11 08:55 | 43.27931 | 73.48301 | 39170 ft | 531 kts | 75° |
| 2026-04-11 08:56 | 43.29732 | 73.58120 | 39165 ft | 531 kts | 75° |
| 2026-04-11 08:56 | 43.31522 | 73.67940 | 39163 ft | 531 kts | 75° |
| 2026-04-11 08:57 | 43.33304 | 73.77764 | 39166 ft | 531 kts | 75° |
| 2026-04-11 08:57 | 43.35079 | 73.87601 | 39156 ft | 531 kts | 75° |
| 2026-04-11 08:58 | 43.36843 | 73.97426 | 39160 ft | 531 kts | 75° |
| 2026-04-11 08:58 | 43.38602 | 74.07282 | 39163 ft | 532 kts | 75° |
| 2026-04-11 08:59 | 43.40352 | 74.17142 | 39161 ft | 532 kts | 75° |
| 2026-04-11 08:59 | 43.42095 | 74.27008 | 39167 ft | 532 kts | 75° |
| 2026-04-11 09:00 | 43.43835 | 74.36880 | 39178 ft | 532 kts | 75° |
| 2026-04-11 09:00 | 43.45570 | 74.46764 | 39183 ft | 533 kts | 75° |
| 2026-04-11 09:01 | 43.47294 | 74.56656 | 39178 ft | 532 kts | 75° |
| 2026-04-11 09:01 | 43.48153 | 74.61591 | 39072 ft | 527 kts | 75° |
| 2026-04-11 09:01 | 43.48993 | 74.66443 | 38315 ft | 516 kts | 75° |
| 2026-04-11 09:02 | 43.49805 | 74.71152 | 37686 ft | 496 kts | 75° |
| 2026-04-11 09:02 | 43.50584 | 74.75673 | 37069 ft | 478 kts | 75° |
| 2026-04-11 09:02 | 43.51336 | 74.80043 | 36480 ft | 462 kts | 75° |
| 2026-04-11 09:02 | 43.52064 | 74.84288 | 35900 ft | 451 kts | 75° |
| 2026-04-11 09:03 | 43.52774 | 74.88451 | 35326 ft | 446 kts | 75° |
| 2026-04-11 09:03 | 43.53481 | 74.92602 | 34738 ft | 445 kts | 75° |
| 2026-04-11 09:03 | 43.54188 | 74.96758 | 34182 ft | 450 kts | 75° |
| 2026-04-11 09:03 | 43.54898 | 75.00943 | 33676 ft | 453 kts | 75° |
| 2026-04-11 09:04 | 43.55613 | 75.05177 | 33077 ft | 454 kts | 75° |
| 2026-04-11 09:04 | 43.56325 | 75.09397 | 32472 ft | 451 kts | 76° |
| 2026-04-11 09:04 | 43.57028 | 75.13579 | 31898 ft | 445 kts | 76° |
| 2026-04-11 09:04 | 43.57720 | 75.17698 | 31325 ft | 440 kts | 76° |
| 2026-04-11 09:05 | 43.58405 | 75.21781 | 30760 ft | 439 kts | 77° |
| 2026-04-11 09:05 | 43.59101 | 75.25944 | 30154 ft | 454 kts | 77° |
| 2026-04-11 09:05 | 43.59816 | 75.30234 | 29500 ft | 458 kts | 77° |
| 2026-04-11 09:05 | 43.60518 | 75.34464 | 28907 ft | 452 kts | 77° |
| 2026-04-11 09:06 | 43.61217 | 75.38668 | 28319 ft | 447 kts | 77° |
| 2026-04-11 09:06 | 43.61904 | 75.42819 | 27740 ft | 442 kts | 77° |
| 2026-04-11 09:06 | 43.62583 | 75.46931 | 27164 ft | 439 kts | 77° |
| 2026-04-11 09:06 | 43.63250 | 75.51010 | 26589 ft | 435 kts | 78° |
| 2026-04-11 09:07 | 43.63514 | 75.55091 | 25999 ft | 420 kts | 92° |
| 2026-04-11 09:07 | 43.63335 | 75.59016 | 25518 ft | 404 kts | 94° |
| 2026-04-11 09:07 | 43.63163 | 75.62825 | 25014 ft | 394 kts | 93° |
| 2026-04-11 09:07 | 43.63015 | 75.66564 | 24502 ft | 388 kts | 93° |
| 2026-04-11 09:08 | 43.62863 | 75.70259 | 24001 ft | 386 kts | 93° |
| 2026-04-11 09:08 | 43.62699 | 75.73944 | 23457 ft | 385 kts | 94° |
| 2026-04-11 09:08 | 43.62535 | 75.77612 | 22942 ft | 381 kts | 93° |
| 2026-04-11 09:08 | 43.62376 | 75.81268 | 22459 ft | 385 kts | 93° |
| 2026-04-11 09:09 | 43.62214 | 75.84985 | 21944 ft | 399 kts | 93° |
| 2026-04-11 09:09 | 43.62047 | 75.88734 | 21416 ft | 386 kts | 93° |
| 2026-04-11 09:09 | 43.61883 | 75.92368 | 20924 ft | 375 kts | 93° |
| 2026-04-11 09:09 | 43.61723 | 75.95913 | 20439 ft | 368 kts | 92° |
| 2026-04-11 09:10 | 43.61564 | 75.99407 | 19969 ft | 363 kts | 92° |
| 2026-04-11 09:10 | 43.61407 | 76.02861 | 19485 ft | 361 kts | 92° |
| 2026-04-11 09:10 | 43.61248 | 76.06300 | 19019 ft | 359 kts | 92° |
| 2026-04-11 09:10 | 43.61089 | 76.09721 | 18550 ft | 358 kts | 92° |
| 2026-04-11 09:11 | 43.60930 | 76.13137 | 18046 ft | 356 kts | 92° |
| 2026-04-11 09:11 | 43.60770 | 76.16531 | 17579 ft | 354 kts | 92° |
| 2026-04-11 09:11 | 43.60612 | 76.19893 | 17116 ft | 352 kts | 92° |
| 2026-04-11 09:11 | 43.60453 | 76.23248 | 16665 ft | 350 kts | 92° |
| 2026-04-11 09:12 | 43.60293 | 76.26577 | 16206 ft | 348 kts | 92° |
| 2026-04-11 09:12 | 43.59867 | 76.29834 | 15695 ft | 348 kts | 109° |
| 2026-04-11 09:12 | 43.58649 | 76.32696 | 15262 ft | 348 kts | 128° |